Nearby METAR Reports

 

PAEN - Kenai, Alaska, USA
Distance from station: ESE 2mi, 4km
Updated: Mon, 15-Jul-2019 8:53pm AKDT
Mostly cloudy
Mostly cloudy
 Wind from ESE
Wind: ESE 9 mph , 15 km/h
Temperature: 64°F , 18°C
Dew Point: 46°F , 8°C
Humidity: 52%
Barometer: 29.72 inHg , 1006.4 hPa
Clouds: Mostly cloudy
Visibility: 10 miles , 16 km
Cloud details: Mostly cloudy 12000 ft
2019/07/16 04:53 PAEN 160453Z 12008KT 10SM BKN120 18/08 A2972 RMK AO2 SLP066 T01780083
PASX - Soldotna, Alaska, USA
Distance from station: SE 12mi, 19km
Updated: Mon, 15-Jul-2019 8:56pm AKDT
Clear
Clear
 Wind from E
Wind: E 7 mph , 11 km/h
Temperature: 63°F , 17°C
Dew Point: 48°F , 9°C
Humidity: 59%
Barometer: 29.74 inHg , 1007.1 hPa
Clouds: Clear
Visibility: 10 miles , 16 km
2019/07/16 04:56 PASX 160456Z AUTO 09006KT 10SM CLR 17/09 A2974 RMK AO2 SLP081 T01720089
 
PANC - Anchorage Intl, Alaska, USA
Distance from station: NE 59mi, 96km
Updated: Mon, 15-Jul-2019 8:53pm AKDT
Mostly cloudy
Mostly cloudy
 Wind from SSE
Wind: SSE 17 mph , 28 km/h, Gust: 25 mph , 41 km/h
Temperature: 64°F , 18°C
Dew Point: 50°F , 10°C
Humidity: 60%
Barometer: 29.73 inHg , 1006.8 hPa
Clouds: Mostly cloudy
Visibility: 10 miles , 16 km
Cloud details: Few Clouds 5500 ft
Partly cloudy 7500 ft
Mostly cloudy 12000 ft
Mostly cloudy 20000 ft
2019/07/16 04:53 PANC 160453Z 15015G22KT 10SM FEW055 SCT075 BKN120 BKN200 18/10 A2973 RMK AO2 PK WND 16028/0356 SLP068 T01780100 $
PALH - Anchorage/Lake H, Alaska, USA
Distance from station: NE 61mi, 99km
Updated: Mon, 15-Jul-2019 8:53pm AKDT
Clear
Clear
 Wind from S
Wind: S 12 mph , 19 km/h, Gust: 22 mph , 35 km/h
Temperature: 64°F , 18°C
Dew Point: 48°F , 9°C
Humidity: 56%
Barometer: 29.74 inHg , 1007.1 hPa
Clouds: Clear
Visibility: 10 miles , 16 km
2019/07/16 04:53 PALH 160453Z 18010G19KT 10SM CLR 18/09 A2974 RMK AO2 SLP072 T01780089
 
PAHO - Homer, Alaska, USA
Distance from station: S 66mi, 106km
Updated: Mon, 15-Jul-2019 8:53pm AKDT
Overcast
Overcast
 Wind from varies
Wind: varies 3 mph , 6 km/h
Temperature: 61°F , 16°C
Dew Point: 54°F , 12°C
Humidity: 77%
Barometer: 29.72 inHg , 1006.4 hPa
Clouds: Overcast
Visibility: 10 miles , 16 km
Cloud details: Overcast 8000 ft
2019/07/16 04:53 PAHO 160453Z VRB03KT 10SM OVC080 16/12 A2972 RMK RAE0355 SLP064 P0000 T01560117 VIA AUTODIAL
PAMR - Anchorage/Merril, Alaska, USA
Distance from station: NE 66mi, 106km
Updated: Mon, 15-Jul-2019 8:53pm AKDT
Few Clouds
Few Clouds
 Wind from SSW
Wind: SSW 13 mph , 20 km/h
Temperature: 64°F , 18°C
Dew Point: 46°F , 8°C
Humidity: 52%
Barometer: 29.72 inHg , 1006.4 hPa
Clouds: Few Clouds
Visibility: 10 miles , 16 km
Cloud details: Few Clouds 11000 ft
2019/07/16 04:53 PAMR 160453Z 20011KT 10SM FEW110 18/08 A2972 RMK AO2 SLP065 T01780083
 
PAED - Elmendorf Afb, Alaska, USA
Distance from station: NE 69mi, 110km
Updated: Mon, 15-Jul-2019 8:56pm AKDT
Partly cloudy
Partly cloudy
 Wind from SSW
Wind: SSW 10 mph , 17 km/h
Temperature: 64°F , 18°C
Dew Point: 50°F , 10°C
Humidity: 60%
Barometer: 29.73 inHg , 1006.8 hPa
Clouds: Partly cloudy
Visibility: 10 miles , 16 km
Cloud details: Partly cloudy 7000 ft
Partly cloudy 20000 ft
2019/07/16 04:56 PAED 160456Z 21009KT 10SM SCT070 SCT200 18/10 A2973 RMK AO2A CB DSNT NW SLP063 T01830096 $
PAWD - Seward, Alaska, USA
Distance from station: ESE 71mi, 115km
Updated: Mon, 15-Jul-2019 8:53pm AKDT
Overcast
Overcast
 Wind from SSW
Wind: SSW 14 mph , 22 km/h, Gust: 23 mph , 37 km/h
Temperature: 57°F , 14°C
Dew Point: 50°F , 10°C
Humidity: 77%
Barometer: 29.79 inHg , 1008.8 hPa
Clouds: Overcast
Visibility: 10 miles , 16 km
Cloud details: Overcast 4700 ft
2019/07/16 04:53 PAWD 160453Z AUTO 20012G20KT 10SM OVC047 14/10 A2979 RMK AO2 SLP086 T01390100 TSNO
 
PASC - Deadhorse, Alaska, USA
Distance from station: ENE 670mi, 1078km
Updated: Mon, 15-Jul-2019 8:53pm AKDT
Light rain, Overcast
Light rain, Overcast
 Wind from E
Wind: E 9 mph , 15 km/h
Temperature: 46°F , 8°C
Wind Chill: 41°F , 5°C
Dew Point: 45°F , 7°C
Humidity: 93%
Barometer: 29.67 inHg , 1004.7 hPa
Summary: Light rain
Clouds: Overcast
Visibility: 10 miles , 16 km
Cloud details: Mostly cloudy 400 ft
Overcast 4400 ft
2019/07/16 04:53 PASC 160453Z 10008KT 10SM -RA BKN004 OVC044 08/07 A2967 RMK AO2 SLP047 P0000 T00830072
PAAD - Point Thomson, Alaska, USA
Distance from station: ENE 680mi, 1094km
Updated: Mon, 15-Jul-2019 8:55pm AKDT
Light rain, Overcast
Light rain, Overcast
 Wind from E
Wind: E 7 mph , 11 km/h
Temperature: 45°F , 7°C
Wind Chill: 41°F , 5°C
Dew Point: 45°F , 7°C
Humidity: 100%
Barometer: 29.69 inHg , 1005.4 hPa
Summary: Light rain
Clouds: Overcast
Visibility: 10 miles , 16 km
Cloud details: Mostly cloudy 400 ft
Mostly cloudy 1700 ft
Overcast 7500 ft
2019/07/16 04:55 PAAD 160455Z AUTO 10006KT 10SM -RA BKN004 BKN017 OVC075 07/07 A2969 RMK AO2 T00730071


kenaipeople.com website

Dans Automotive

Lower Peninsula Power Sports

Freddies RoadHouse

Alaska Weather Net